In Rescue
 
Open Full Screen Window  High Contrast Mode
Wind Gusting 00 knots
06
April 24, 2019 2:32 AM EDT
Weather Information
Wind Direction
  340 °
Wind Speed
  06 kt (7 mph)
Wind Gust
  00 kt (0 mph)
Altimeter
30.00 in
Visibility
10 SM
Temperature
08° C
46° F
Dewpoint
05° C
41° F
Humidity
82%
1hr Rain Fall
00.00 in.
24hr Rain Fall
00.00 in.
Sky Condition
Clear
VFR

METAR KMRT 240632Z AUTO 34006KT 10SM CLR 08/05 A3000 RMK AO2 T00750045

FAA Disclaimer: The data displayed is for advisory purposes only and is not to be used for flight planning or operations.